Time;durP1;ratioP1;P1;durP2;ratioP2;P2;SDS_P1;SDS_P2;PMS_P1;PMS_P2;Temp;Humidity;BMP_temperature;BMP_pressure;BME280_temperature;BME280_humidity;BME280_pressure;Samples;Min_cycle;Max_cycle;Signal;HPM_P1;HPM_P2
2023/01/12 00:02:11;;;;;;;4.30;1.50;;;11.10;59.90;;;;;;5009732;28;20472;-59
2023/01/12 00:04:36;;;;;;;3.40;2.17;;;10.80;60.90;;;;;;5008690;28;20277;-59
2023/01/12 00:07:08;;;;;;;9.00;1.83;;;10.80;61.20;;;;;;5005498;28;20531;-60
2023/01/12 00:09:35;;;;;;;5.93;1.77;;;10.70;61.90;;;;;;5001365;28;20198;-59
2023/01/12 00:12:06;;;;;;;4.87;1.40;;;10.80;61.70;;;;;;5003301;28;20485;-59
2023/01/12 00:14:36;;;;;;;3.87;1.70;;;10.60;61.60;;;;;;5006036;28;20492;-59
2023/01/12 00:17:02;;;;;;;5.47;2.20;;;10.50;62.30;;;;;;5002712;28;20441;-59
2023/01/12 00:19:27;;;;;;;3.67;1.70;;;10.50;62.30;;;;;;5004554;28;20548;-59
2023/01/12 00:24:26;;;;;;;5.63;1.63;;;10.60;62.50;;;;;;5003596;28;20191;-59
2023/01/12 00:26:53;;;;;;;6.13;1.67;;;10.50;62.50;;;;;;5007364;28;21432;-59
2023/01/12 00:29:19;;;;;;;4.80;1.77;;;10.60;62.60;;;;;;5006507;28;20519;-60
2023/01/12 00:31:45;;;;;;;6.67;1.67;;;10.70;62.50;;;;;;5002986;28;20436;-59
2023/01/12 00:34:11;;;;;;;3.87;1.70;;;10.80;62.20;;;;;;5007991;28;20840;-59
2023/01/12 00:36:37;;;;;;;3.17;1.63;;;10.80;62.00;;;;;;5008096;28;20444;-59
2023/01/12 00:39:03;;;;;;;2.87;1.70;;;10.80;62.10;;;;;;5008686;28;20441;-59
2023/01/12 00:46:57;;;;;;;6.27;2.03;;;11.10;61.20;;;;;;5007102;28;20845;-59
2023/01/12 00:49:22;;;;;;;2.30;1.30;;;11.20;60.60;;;;;;5013725;28;20445;-60
2023/01/12 00:51:48;;;;;;;4.83;1.83;;;11.30;60.40;;;;;;5003947;28;20723;-60
2023/01/12 00:54:13;;;;;;;5.07;1.57;;;11.20;60.10;;;;;;5010713;28;20586;-60
2023/01/12 00:56:39;;;;;;;4.23;1.73;;;11.30;60.10;;;;;;5004708;28;20276;-60
2023/01/12 00:59:05;;;;;;;4.80;1.50;;;11.40;59.70;;;;;;5007082;28;20669;-60
2023/01/12 01:01:32;;;;;;;2.33;1.53;;;11.10;59.50;;;;;;5012370;28;20707;-59
2023/01/12 01:03:58;;;;;;;4.67;1.37;;;11.10;60.00;;;;;;5008417;28;20452;-59
2023/01/12 01:06:24;;;;;;;3.57;1.50;;;11.20;59.90;;;;;;5007359;28;20466;-60
2023/01/12 01:08:49;;;;;;;4.57;1.40;;;11.40;59.50;;;;;;5004729;28;20197;-59
2023/01/12 01:11:15;;;;;;;3.97;1.23;;;11.50;59.10;;;;;;4997039;28;20657;-60
2023/01/12 01:13:44;;;;;;;5.83;1.37;;;11.50;59.10;;;;;;5004066;28;20232;-60
2023/01/12 01:16:16;;;;;;;4.63;2.30;;;11.50;59.20;;;;;;5008692;28;20524;-60
2023/01/12 01:18:42;;;;;;;1.53;1.30;;;11.50;59.30;;;;;;5000089;28;20502;-60
2023/01/12 01:21:10;;;;;;;3.23;1.10;;;11.50;59.40;;;;;;5006431;28;20437;-60
2023/01/12 01:23:37;;;;;;;3.60;1.47;;;11.50;59.40;;;;;;5002132;28;20450;-60
2023/01/12 01:26:09;;;;;;;2.73;1.40;;;11.40;59.40;;;;;;5005775;28;20449;-60
2023/01/12 01:28:35;;;;;;;2.93;1.20;;;11.40;59.50;;;;;;5003128;28;21101;-60
2023/01/12 01:31:06;;;;;;;3.63;1.27;;;11.40;59.60;;;;;;5003619;28;20445;-60
2023/01/12 01:33:32;;;;;;;2.90;1.43;;;11.50;59.50;;;;;;5002356;28;21046;-60
2023/01/12 01:35:58;;;;;;;3.73;2.00;;;11.50;59.60;;;;;;5001616;28;20444;-60
2023/01/12 01:38:23;;;;;;;2.70;1.30;;;11.50;59.60;;;;;;5012612;28;20229;-60
2023/01/12 01:40:49;;;;;;;2.70;1.20;;;11.50;59.40;;;;;;5008199;28;20680;-60
2023/01/12 01:43:17;;;;;;;3.13;1.90;;;11.50;59.50;;;;;;5012484;28;20735;-60
2023/01/12 01:45:44;;;;;;;3.73;1.30;;;11.50;59.40;;;;;;5007648;28;20198;-59
2023/01/12 01:48:13;;;;;;;6.17;1.50;;;11.40;59.30;;;;;;5010445;28;20820;-60
2023/01/12 01:50:42;;;;;;;5.17;1.40;;;11.50;59.30;;;;;;5011934;28;20447;-60
2023/01/12 01:53:13;;;;;;;2.40;1.37;;;11.40;59.40;;;;;;5008369;28;20480;-60
2023/01/12 01:55:49;;;;;;;2.60;1.63;;;11.40;59.50;;;;;;5007880;28;20441;-59
2023/01/12 01:58:21;;;;;;;3.23;1.27;;;11.40;59.30;;;;;;5000081;28;20436;-59
2023/01/12 02:00:46;;;;;;;2.50;1.27;;;11.40;59.10;;;;;;5005188;28;20459;-60
2023/01/12 02:03:13;;;;;;;5.20;1.20;;;11.40;59.20;;;;;;5005728;28;20862;-60
2023/01/12 02:05:42;;;;;;;5.30;1.63;;;11.50;59.00;;;;;;5000779;28;20182;-60
2023/01/12 02:08:32;;;;;;;3.17;1.40;;;11.50;58.90;;;;;;5003546;28;20521;-60
2023/01/12 02:10:59;;;;;;;2.10;1.37;;;11.60;59.00;;;;;;5003142;28;20445;-60
2023/01/12 02:16:24;;;;;;;4.43;1.40;;;11.50;58.70;;;;;;5011410;28;20527;-60
2023/01/12 02:19:27;;;;;;;1.50;1.20;;;11.60;59.30;;;;;;4992755;28;20961;-60
2023/01/12 02:22:23;;;;;;;7.70;2.40;;;11.60;58.60;;;;;;4997342;28;20507;-59
2023/01/12 02:25:08;;;;;;;3.13;1.20;;;11.50;58.90;;;;;;4996094;28;20445;-59
2023/01/12 02:27:42;;;;;;;5.13;1.70;;;11.30;59.00;;;;;;5002862;28;20948;-59
2023/01/12 02:30:24;;;;;;;7.33;1.60;;;11.20;59.40;;;;;;5000761;28;20939;-59
2023/01/12 02:32:49;;;;;;;7.33;1.50;;;11.30;59.50;;;;;;4995069;28;20878;-59
2023/01/12 02:35:29;;;;;;;6.10;1.30;;;11.20;59.40;;;;;;5004369;28;20532;-59
2023/01/12 02:38:00;;;;;;;4.30;1.23;;;11.30;59.20;;;;;;4995142;28;20193;-59
2023/01/12 02:40:37;;;;;;;5.03;1.57;;;11.30;58.90;;;;;;5008378;28;20444;-60
2023/01/12 02:43:18;;;;;;;2.73;1.23;;;11.40;58.90;;;;;;5007431;28;20932;-59
2023/01/12 02:46:14;;;;;;;3.27;1.50;;;11.30;58.80;;;;;;4999767;28;20437;-59
2023/01/12 02:49:09;;;;;;;5.23;1.60;;;11.40;58.90;;;;;;4999593;28;20843;-59
2023/01/12 02:51:44;;;;;;;4.63;1.53;;;11.30;58.70;;;;;;5004435;28;20508;-59
2023/01/12 02:54:14;;;;;;;3.63;1.30;;;11.30;58.60;;;;;;5008376;28;20483;-59
2023/01/12 02:56:49;;;;;;;3.67;1.17;;;11.20;58.90;;;;;;5001647;28;20438;-59
2023/01/12 02:59:25;;;;;;;3.67;1.17;;;11.20;58.80;;;;;;5006052;28;20804;-59
2023/01/12 03:01:56;;;;;;;1.90;1.23;;;11.20;58.70;;;;;;5005305;28;20509;-59
2023/01/12 03:04:22;;;;;;;4.73;2.07;;;11.30;58.80;;;;;;5004239;28;20459;-59
2023/01/12 03:06:56;;;;;;;6.00;2.13;;;11.50;58.60;;;;;;5002948;28;20444;-59
2023/01/12 03:09:28;;;;;;;4.57;1.50;;;11.70;58.20;;;;;;5000331;28;20822;-59
2023/01/12 03:12:01;;;;;;;5.03;1.30;;;11.60;57.90;;;;;;5008068;28;20429;-59
2023/01/12 03:14:30;;;;;;;5.20;1.40;;;11.60;57.80;;;;;;5009596;28;20496;-59
2023/01/12 03:16:56;;;;;;;3.63;1.10;;;11.50;57.90;;;;;;5002822;28;20523;-59
2023/01/12 03:19:28;;;;;;;5.57;1.47;;;11.60;58.00;;;;;;5008130;28;20536;-59
2023/01/12 03:22:00;;;;;;;4.03;1.50;;;11.70;57.70;;;;;;5007888;28;20213;-59
2023/01/12 03:24:34;;;;;;;6.53;1.30;;;11.60;57.70;;;;;;5008627;28;20459;-59
2023/01/12 03:27:09;;;;;;;2.97;1.47;;;11.60;57.90;;;;;;5004412;28;20791;-59
2023/01/12 03:29:40;;;;;;;5.60;1.87;;;11.60;57.80;;;;;;5008936;28;20848;-59
2023/01/12 03:32:06;;;;;;;3.50;1.43;;;11.60;57.80;;;;;;5008377;28;20964;-59
2023/01/12 03:34:33;;;;;;;5.03;1.40;;;11.60;57.80;;;;;;5007323;28;20500;-59
2023/01/12 03:37:05;;;;;;;5.27;1.63;;;11.50;58.00;;;;;;5006951;28;20950;-59
2023/01/12 03:39:57;;;;;;;3.60;1.53;;;11.40;58.50;;;;;;5002722;28;20497;-59
2023/01/12 03:42:28;;;;;;;9.57;2.57;;;11.50;58.20;;;;;;5004447;28;20944;-59
2023/01/12 03:45:03;;;;;;;5.70;1.53;;;11.70;57.70;;;;;;5002684;28;20450;-59
2023/01/12 03:47:31;;;;;;;3.37;1.17;;;11.60;57.70;;;;;;5004277;28;20492;-59
2023/01/12 03:50:16;;;;;;;8.23;2.30;;;11.70;57.70;;;;;;4997470;28;20438;-59
2023/01/12 03:52:43;;;;;;;10.43;1.90;;;11.50;57.60;;;;;;5002822;28;20436;-59
2023/01/12 03:55:13;;;;;;;8.33;1.90;;;11.60;57.60;;;;;;4998685;28;20975;-59
2023/01/12 03:57:39;;;;;;;4.43;1.23;;;11.50;57.40;;;;;;5003002;28;20445;-59
2023/01/12 04:00:08;;;;;;;4.30;1.30;;;11.50;57.80;;;;;;4999852;28;20438;-59
2023/01/12 04:02:34;;;;;;;4.30;1.07;;;11.60;57.70;;;;;;5015112;28;20512;-59
2023/01/12 04:04:59;;;;;;;6.80;1.60;;;11.50;57.50;;;;;;4999721;28;20450;-59
2023/01/12 04:07:25;;;;;;;5.80;1.70;;;11.50;57.60;;;;;;5002486;28;20277;-59
2023/01/12 04:09:51;;;;;;;8.83;1.57;;;11.60;57.60;;;;;;5005101;28;20229;-60
2023/01/12 04:12:17;;;;;;;3.10;1.40;;;11.60;57.50;;;;;;5007342;28;20473;-60
2023/01/12 04:14:44;;;;;;;4.20;1.90;;;11.60;57.50;;;;;;4996945;28;20234;-59
2023/01/12 04:17:12;;;;;;;5.13;1.40;;;11.50;57.70;;;;;;5000591;28;21206;-59
2023/01/12 04:19:38;;;;;;;6.60;1.60;;;11.60;57.80;;;;;;4997774;28;20441;-59
2023/01/12 04:24:48;;;;;;;7.97;2.20;;;11.40;57.90;;;;;;4999758;28;20447;-59
2023/01/12 04:27:14;;;;;;;5.57;1.83;;;11.50;58.10;;;;;;5003681;28;20441;-59
2023/01/12 04:29:40;;;;;;;5.47;1.87;;;11.50;58.60;;;;;;5003435;28;20203;-59
2023/01/12 04:32:06;;;;;;;5.40;1.37;;;11.60;58.10;;;;;;5000984;28;20451;-59
2023/01/12 04:34:31;;;;;;;6.10;1.50;;;11.70;57.90;;;;;;5008091;28;20229;-59
2023/01/12 04:36:58;;;;;;;5.13;1.80;;;11.60;58.00;;;;;;4997157;28;20186;-59
2023/01/12 04:39:24;;;;;;;2.53;1.37;;;11.60;58.10;;;;;;5008632;28;20674;-59
2023/01/12 04:41:49;;;;;;;5.10;1.70;;;11.80;58.10;;;;;;5012679;28;20479;-60
2023/01/12 04:44:15;;;;;;;4.60;1.50;;;11.70;57.90;;;;;;5008671;28;20205;-59
2023/01/12 04:46:41;;;;;;;2.63;1.30;;;11.70;58.00;;;;;;5004201;28;20700;-59
2023/01/12 04:49:06;;;;;;;2.60;1.60;;;11.80;57.90;;;;;;5009955;28;20248;-59
2023/01/12 04:51:32;;;;;;;6.43;2.00;;;11.80;57.90;;;;;;5005372;28;20198;-59
2023/01/12 04:53:58;;;;;;;8.57;2.90;;;11.40;58.30;;;;;;5007557;28;20229;-59
2023/01/12 04:56:23;;;;;;;5.70;1.63;;;11.40;58.60;;;;;;5004060;28;20191;-59
2023/01/12 04:58:54;;;;;;;9.30;1.90;;;11.60;58.50;;;;;;4998681;28;20278;-57
2023/01/12 05:01:21;;;;;;;2.90;1.83;;;11.60;58.40;;;;;;4999790;28;20649;-59
2023/01/12 05:03:46;;;;;;;6.83;1.87;;;11.60;58.60;;;;;;4995616;28;20484;-60
2023/01/12 05:06:12;;;;;;;3.33;1.37;;;11.70;58.50;;;;;;5007102;28;20968;-60
2023/01/12 05:11:27;;;;;;;3.70;1.03;;;11.90;58.00;;;;;;5005680;28;20582;-59
2023/01/12 05:13:54;;;;;;;4.60;1.77;;;11.80;58.00;;;;;;5006931;28;20574;-60
2023/01/12 05:16:19;;;;;;;5.07;1.53;;;11.80;58.20;;;;;;4997839;28;20448;-59
2023/01/12 05:18:45;;;;;;;7.20;1.50;;;11.70;58.20;;;;;;5004234;28;20483;-58
2023/01/12 05:21:12;;;;;;;17.13;2.40;;;11.60;58.20;;;;;;5003642;28;20212;-59
2023/01/12 05:23:37;;;;;;;5.50;2.40;;;11.60;58.50;;;;;;5004108;28;20444;-59
2023/01/12 05:26:05;;;;;;;5.23;1.70;;;11.70;58.40;;;;;;5004772;28;20457;-59
2023/01/12 05:28:31;;;;;;;7.57;1.63;;;11.60;58.60;;;;;;4997247;28;20205;-59
2023/01/12 05:31:23;;;;;;;6.20;2.13;;;11.50;58.90;;;;;;5001382;28;20802;-59
2023/01/12 05:33:48;;;;;;;5.30;2.03;;;11.80;58.80;;;;;;5001123;28;22071;-59
2023/01/12 05:36:15;;;;;;;8.53;1.67;;;11.80;58.40;;;;;;5003186;28;20441;-58
2023/01/12 05:38:41;;;;;;;5.43;1.80;;;11.90;58.30;;;;;;5002893;28;20224;-59
2023/01/12 05:41:09;;;;;;;4.73;2.00;;;11.90;58.20;;;;;;5002285;28;20441;-59
2023/01/12 05:43:50;;;;;;;7.03;1.43;;;12.00;58.20;;;;;;5000325;28;20198;-59
2023/01/12 05:46:27;;;;;;;8.07;2.10;;;11.90;58.00;;;;;;4999171;28;20484;-59
2023/01/12 05:48:54;;;;;;;5.23;2.10;;;11.90;58.00;;;;;;4998931;28;20495;-59
2023/01/12 05:51:21;;;;;;;8.10;1.63;;;11.80;58.10;;;;;;5005273;28;20475;-59
2023/01/12 05:53:47;;;;;;;6.87;2.47;;;11.80;58.20;;;;;;5005559;28;20583;-57
2023/01/12 05:56:25;;;;;;;6.90;2.40;;;11.70;58.30;;;;;;5002658;28;20566;-58
2023/01/12 05:58:53;;;;;;;6.83;1.87;;;11.50;58.80;;;;;;5006691;28;20512;-59
2023/01/12 06:01:19;;;;;;;7.67;2.00;;;11.40;58.90;;;;;;5001257;28;21196;-56
2023/01/12 06:03:50;;;;;;;5.63;2.17;;;11.40;59.00;;;;;;5003346;28;20560;-57
2023/01/12 06:06:16;;;;;;;4.37;1.63;;;11.50;59.00;;;;;;4996432;28;20450;-58
2023/01/12 06:08:42;;;;;;;3.83;1.50;;;11.30;58.90;;;;;;5009246;28;20571;-57
2023/01/12 06:13:55;;;;;;;3.70;1.50;;;11.30;59.10;;;;;;5004431;28;20523;-57
2023/01/12 06:13:55;;;;;;;4.77;1.80;;;11.50;59.10;;;;;;5005063;28;20700;-58
2023/01/12 06:16:21;;;;;;;8.23;2.10;;;11.70;58.60;;;;;;5001456;28;20441;-58
2023/01/12 06:18:47;;;;;;;15.87;2.93;;;11.50;58.60;;;;;;5004475;28;20475;-58
2023/01/12 06:21:12;;;;;;;6.53;1.73;;;11.50;58.80;;;;;;5004783;28;20573;-58
2023/01/12 06:23:38;;;;;;;4.57;1.60;;;11.40;59.20;;;;;;5004234;28;20202;-58
2023/01/12 06:26:05;;;;;;;5.53;1.80;;;11.40;58.90;;;;;;4996721;28;20190;-58
2023/01/12 06:28:31;;;;;;;8.87;3.10;;;11.40;58.80;;;;;;5000810;28;20662;-58
2023/01/12 06:31:02;;;;;;;4.57;1.97;;;11.30;58.60;;;;;;5002790;28;20442;-58
2023/01/12 06:33:28;;;;;;;5.13;1.60;;;11.30;59.20;;;;;;5000496;28;20230;-58
2023/01/12 06:35:55;;;;;;;9.83;2.03;;;11.20;58.90;;;;;;4995594;28;20452;-59
2023/01/12 06:38:23;;;;;;;6.70;2.70;;;11.20;59.10;;;;;;5003233;28;20474;-58
2023/01/12 06:40:49;;;;;;;5.97;2.23;;;11.30;59.00;;;;;;5000271;28;20488;-58
2023/01/12 06:43:15;;;;;;;6.20;1.80;;;11.40;59.00;;;;;;5004769;28;20445;-58
2023/01/12 06:45:41;;;;;;;4.67;1.37;;;11.40;58.70;;;;;;5005401;28;20459;-58
2023/01/12 06:48:07;;;;;;;8.87;2.27;;;11.20;58.90;;;;;;5009614;28;20468;-58
2023/01/12 06:50:33;;;;;;;3.77;1.37;;;11.20;59.20;;;;;;5004195;28;20195;-58
2023/01/12 06:53:00;;;;;;;3.77;1.63;;;11.50;59.20;;;;;;5002138;28;20281;-58
2023/01/12 06:55:26;;;;;;;4.10;1.40;;;11.50;58.60;;;;;;5009668;28;20531;-58
2023/01/12 06:57:51;;;;;;;5.67;1.70;;;11.50;58.70;;;;;;5010229;28;20926;-58
2023/01/12 07:00:17;;;;;;;6.60;1.90;;;11.70;58.60;;;;;;5001966;28;20203;-58
2023/01/12 07:02:43;;;;;;;5.53;1.70;;;11.50;58.30;;;;;;5004754;28;20573;-58
2023/01/12 07:05:08;;;;;;;4.40;1.53;;;11.50;58.50;;;;;;4996860;28;20193;-58
2023/01/12 07:07:36;;;;;;;6.83;2.60;;;11.50;58.90;;;;;;5002280;28;20281;-58
2023/01/12 07:10:02;;;;;;;5.03;1.80;;;11.50;58.80;;;;;;4997163;28;20272;-58
2023/01/12 07:12:28;;;;;;;7.10;1.47;;;11.50;58.60;;;;;;5007662;28;20437;-58
2023/01/12 07:14:55;;;;;;;7.90;1.90;;;11.60;58.80;;;;;;5001363;28;20543;-59
2023/01/12 07:17:20;;;;;;;6.20;1.70;;;11.40;58.60;;;;;;5004139;28;20376;-57
2023/01/12 07:19:46;;;;;;;8.00;2.17;;;11.30;59.00;;;;;;5009357;28;20540;-57
2023/01/12 07:22:11;;;;;;;5.17;2.27;;;11.20;59.00;;;;;;5006969;28;20194;-57
2023/01/12 07:24:37;;;;;;;5.67;2.43;;;11.30;59.20;;;;;;4999952;28;20557;-57
2023/01/12 07:27:02;;;;;;;5.47;2.20;;;11.40;59.00;;;;;;5001226;28;20189;-57
2023/01/12 07:29:28;;;;;;;4.20;1.60;;;11.30;58.70;;;;;;5006345;28;20298;-57
2023/01/12 07:31:54;;;;;;;4.77;1.40;;;11.10;58.90;;;;;;5002969;28;20225;-57
2023/01/12 07:34:19;;;;;;;5.17;2.17;;;11.20;59.10;;;;;;5002056;28;20277;-57
2023/01/12 07:36:48;;;;;;;6.63;1.93;;;11.40;58.70;;;;;;5007139;28;20198;-57
2023/01/12 07:39:14;;;;;;;2.70;1.53;;;11.30;58.20;;;;;;5004432;28;20201;-57
2023/01/12 07:44:23;;;;;;;7.30;1.67;;;11.60;57.70;;;;;;5008532;28;21625;-57
2023/01/12 07:46:49;;;;;;;5.97;1.30;;;11.70;57.80;;;;;;5008378;28;20449;-57
2023/01/12 07:49:15;;;;;;;5.87;1.80;;;11.70;57.40;;;;;;5009339;28;20232;-57
2023/01/12 07:51:40;;;;;;;4.40;1.80;;;11.90;57.50;;;;;;5003122;28;20708;-57
2023/01/12 07:54:06;;;;;;;4.83;1.60;;;12.10;57.00;;;;;;5007430;28;20324;-58
2023/01/12 07:56:32;;;;;;;5.63;1.60;;;12.40;56.70;;;;;;5002132;28;20273;-57
2023/01/12 07:58:57;;;;;;;5.43;1.40;;;12.50;56.20;;;;;;5010296;28;20190;-57
2023/01/12 08:01:23;;;;;;;3.13;1.60;;;12.70;55.80;;;;;;5007299;28;20190;-57
2023/01/12 08:03:48;;;;;;;3.43;1.97;;;12.80;55.60;;;;;;5004715;28;20192;-58
2023/01/12 08:06:14;;;;;;;5.03;1.63;;;12.70;55.60;;;;;;5012735;28;20190;-57
2023/01/12 08:08:40;;;;;;;5.40;1.50;;;12.90;55.50;;;;;;4999923;28;20244;-57
2023/01/12 08:11:08;;;;;;;3.07;1.43;;;12.80;55.00;;;;;;5013309;28;20580;-58
2023/01/12 08:13:34;;;;;;;4.13;1.37;;;12.90;54.90;;;;;;5003736;28;20685;-58
2023/01/12 08:16:05;;;;;;;6.93;2.07;;;12.80;54.70;;;;;;5011407;28;20468;-58
2023/01/12 08:18:42;;;;;;;8.30;1.97;;;12.80;55.10;;;;;;4999285;28;20938;-58
2023/01/12 08:21:13;;;;;;;4.47;1.97;;;12.90;54.90;;;;;;5005445;28;20445;-58
2023/01/12 08:23:44;;;;;;;4.70;1.37;;;12.70;55.00;;;;;;5004302;28;20437;-58
2023/01/12 08:26:18;;;;;;;4.17;1.40;;;12.70;55.00;;;;;;5003953;28;20449;-57
2023/01/12 08:29:02;;;;;;;4.60;1.83;;;12.70;55.00;;;;;;5005344;28;20479;-57
2023/01/12 08:31:30;;;;;;;3.50;1.90;;;12.60;54.90;;;;;;4996196;28;20482;-58
2023/01/12 08:33:56;;;;;;;4.50;1.97;;;12.60;55.10;;;;;;5003884;28;20484;-59
2023/01/12 08:36:24;;;;;;;3.33;1.30;;;12.60;55.10;;;;;;5002999;28;20462;-57
2023/01/12 08:38:49;;;;;;;2.70;1.50;;;12.70;55.00;;;;;;5001926;28;20649;-57
2023/01/12 08:41:33;;;;;;;3.47;1.50;;;12.70;55.00;;;;;;4995151;28;20504;-57
2023/01/12 08:44:06;;;;;;;5.77;1.80;;;12.80;54.90;;;;;;4998535;28;20245;-57
2023/01/12 08:46:38;;;;;;;2.20;1.20;;;12.70;55.10;;;;;;5009505;28;20456;-58
2023/01/12 08:49:08;;;;;;;4.50;1.20;;;12.80;54.80;;;;;;5011717;28;20472;-58
2023/01/12 08:51:34;;;;;;;5.50;2.03;;;12.80;54.90;;;;;;5007146;28;20498;-57
2023/01/12 08:54:01;;;;;;;4.20;1.37;;;12.80;54.80;;;;;;5000115;28;20554;-58
2023/01/12 08:56:27;;;;;;;3.63;0.80;;;12.90;54.80;;;;;;5006203;28;20449;-58
2023/01/12 08:58:52;;;;;;;2.20;1.27;;;12.50;54.80;;;;;;5009768;28;20444;-57
2023/01/12 09:01:19;;;;;;;8.27;1.53;;;12.50;55.40;;;;;;5000000;28;20202;-57
2023/01/12 09:03:46;;;;;;;5.97;1.83;;;12.50;55.50;;;;;;5003045;28;20198;-57
2023/01/12 09:06:22;;;;;;;4.07;1.40;;;12.60;55.40;;;;;;4999646;28;20444;-58
2023/01/12 09:08:52;;;;;;;7.57;1.90;;;12.60;55.40;;;;;;5006574;28;20926;-58
2023/01/12 09:11:18;;;;;;;3.50;1.33;;;12.60;55.60;;;;;;5009424;28;20952;-57
2023/01/12 09:13:44;;;;;;;6.37;1.60;;;12.70;55.30;;;;;;5007698;28;20476;-58
2023/01/12 09:16:12;;;;;;;2.87;1.33;;;12.70;55.30;;;;;;5000680;28;20201;-58
2023/01/12 09:18:38;;;;;;;3.33;1.30;;;12.60;55.30;;;;;;5004920;28;20190;-57
2023/01/12 09:21:11;;;;;;;3.80;1.50;;;12.60;55.50;;;;;;5010095;28;20460;-57
2023/01/12 09:23:37;;;;;;;6.40;1.83;;;12.20;55.80;;;;;;5006823;28;20460;-57
2023/01/12 09:26:05;;;;;;;5.70;1.57;;;12.10;56.10;;;;;;5009583;28;20532;-59
2023/01/12 09:28:31;;;;;;;3.27;1.57;;;11.90;56.50;;;;;;4999935;28;20444;-57
2023/01/12 09:31:05;;;;;;;3.83;2.60;;;11.90;56.80;;;;;;5006100;28;20811;-57
2023/01/12 09:33:32;;;;;;;4.47;1.53;;;12.10;56.90;;;;;;5008076;28;20477;-58
2023/01/12 09:36:06;;;;;;;4.30;1.77;;;12.10;56.90;;;;;;5004375;28;20441;-58
2023/01/12 09:38:35;;;;;;;3.30;2.00;;;12.30;56.80;;;;;;4996731;28;20519;-57
2023/01/12 09:41:07;;;;;;;5.17;1.70;;;12.30;56.70;;;;;;5007524;28;20791;-57
2023/01/12 09:49:21;;;;;;;7.03;2.50;;;12.50;56.30;;;;;;5002172;28;20540;-57
2023/01/12 09:51:59;;;;;;;3.33;1.60;;;12.30;56.80;;;;;;4993504;28;20446;-57
2023/01/12 09:54:25;;;;;;;4.13;1.93;;;12.40;56.90;;;;;;5007736;28;20999;-58
2023/01/12 09:57:11;;;;;;;4.90;1.60;;;12.40;56.80;;;;;;5004812;28;20480;-58
2023/01/12 10:00:01;;;;;;;3.20;2.20;;;12.40;57.10;;;;;;5009033;28;20661;-58
2023/01/12 10:02:27;;;;;;;2.73;1.20;;;12.20;57.10;;;;;;5001393;28;20943;-58
2023/01/12 10:04:55;;;;;;;3.07;1.33;;;12.20;57.70;;;;;;5006147;28;20495;-59
2023/01/12 10:07:20;;;;;;;6.57;1.50;;;12.30;57.60;;;;;;5002201;28;20256;-59
2023/01/12 10:09:46;;;;;;;4.97;1.50;;;12.20;57.80;;;;;;4999467;28;20457;-59
2023/01/12 10:12:40;;;;;;;4.50;1.40;;;12.60;58.00;;;;;;5009929;28;20212;-58
2023/01/12 10:15:28;;;;;;;5.40;1.80;;;12.70;57.10;;;;;;5003122;28;20514;-58
2023/01/12 10:17:53;;;;;;;7.10;2.47;;;12.50;57.30;;;;;;5006843;28;20820;-56
2023/01/12 10:20:28;;;;;;;2.70;1.33;;;12.60;57.70;;;;;;5003479;28;20453;-58
2023/01/12 10:23:00;;;;;;;4.37;1.80;;;12.60;57.30;;;;;;5011189;28;20222;-58
2023/01/12 10:25:47;;;;;;;8.70;2.20;;;12.60;57.20;;;;;;5007440;28;20449;-58
2023/01/12 10:28:34;;;;;;;4.57;2.50;;;12.80;57.20;;;;;;5004138;28;20436;-58
2023/01/12 10:31:00;;;;;;;2.20;1.50;;;12.70;57.00;;;;;;5007838;28;21019;-58
2023/01/12 10:33:31;;;;;;;5.50;1.30;;;12.80;56.70;;;;;;5005201;28;20445;-58
2023/01/12 10:36:14;;;;;;;4.00;1.47;;;12.80;56.90;;;;;;4995240;28;20446;-58
2023/01/12 10:38:59;;;;;;;8.60;1.67;;;12.80;56.70;;;;;;5004017;28;20456;-58
2023/01/12 10:41:30;;;;;;;3.23;1.87;;;12.40;56.90;;;;;;5011699;28;20456;-58
2023/01/12 10:43:58;;;;;;;3.70;1.40;;;12.50;57.30;;;;;;5009928;28;20456;-58
2023/01/12 10:46:27;;;;;;;5.53;1.30;;;12.70;57.20;;;;;;5004755;28;20480;-58
2023/01/12 10:48:55;;;;;;;3.77;1.30;;;12.70;56.80;;;;;;5000062;28;20523;-58
2023/01/12 10:51:34;;;;;;;6.70;1.80;;;12.60;56.80;;;;;;5008457;28;20445;-58
2023/01/12 10:54:16;;;;;;;6.47;1.50;;;12.70;57.00;;;;;;5003703;28;21011;-58
2023/01/12 10:56:53;;;;;;;7.27;1.87;;;12.60;56.70;;;;;;5003858;28;20448;-58
2023/01/12 10:59:23;;;;;;;3.03;1.67;;;12.70;56.90;;;;;;5010124;28;20800;-58
2023/01/12 11:01:50;;;;;;;4.73;1.23;;;12.70;56.40;;;;;;5006553;28;20469;-58
2023/01/12 11:04:26;;;;;;;3.60;1.50;;;12.70;56.60;;;;;;5009129;28;20860;-58
2023/01/12 11:07:27;;;;;;;6.60;2.20;;;12.70;56.70;;;;;;5001930;28;20829;-58
2023/01/12 11:09:56;;;;;;;4.20;1.13;;;12.70;56.70;;;;;;5005365;28;20482;-58
2023/01/12 11:12:28;;;;;;;3.73;1.30;;;12.70;56.50;;;;;;4999242;28;20527;-58
2023/01/12 11:15:05;;;;;;;3.77;1.00;;;12.80;56.40;;;;;;4995187;28;20535;-58
2023/01/12 11:17:33;;;;;;;4.00;1.73;;;12.70;56.10;;;;;;5004439;28;20484;-58
2023/01/12 11:20:00;;;;;;;4.23;1.67;;;12.60;56.40;;;;;;5010614;28;20467;-58
2023/01/12 11:22:34;;;;;;;2.60;1.00;;;12.70;56.70;;;;;;5002544;28;20551;-57
2023/01/12 11:25:19;;;;;;;1.90;1.13;;;12.70;56.60;;;;;;5004455;28;20457;-58
2023/01/12 11:27:49;;;;;;;5.37;1.40;;;12.70;56.20;;;;;;4998026;28;20456;-58
2023/01/12 11:30:21;;;;;;;4.40;1.27;;;12.70;56.40;;;;;;4999001;28;21061;-58
2023/01/12 11:33:07;;;;;;;3.90;1.20;;;12.50;56.20;;;;;;4995961;28;20452;-58
2023/01/12 11:36:00;;;;;;;2.10;0.80;;;12.50;56.50;;;;;;5004630;28;20484;-58
2023/01/12 11:38:33;;;;;;;2.83;1.80;;;12.70;56.50;;;;;;5007337;28;21423;-57
2023/01/12 11:40:58;;;;;;;3.43;1.10;;;12.60;56.40;;;;;;5014225;28;20471;-57
2023/01/12 11:43:50;;;;;;;2.50;1.30;;;12.70;56.60;;;;;;5010865;28;20444;-57
2023/01/12 11:46:28;;;;;;;2.43;1.13;;;12.70;56.60;;;;;;5011519;28;20217;-57
2023/01/12 11:49:10;;;;;;;4.07;1.27;;;12.90;56.70;;;;;;5013786;28;20480;-56
2023/01/12 11:51:37;;;;;;;2.40;1.00;;;12.70;56.40;;;;;;5002484;28;20849;-57
2023/01/12 11:54:05;;;;;;;2.77;1.00;;;12.70;56.80;;;;;;5012164;28;20579;-57
2023/01/12 11:56:49;;;;;;;4.50;1.27;;;12.90;56.80;;;;;;5005106;28;20952;-57
2023/01/12 11:59:23;;;;;;;1.17;0.80;;;12.90;56.70;;;;;;5009855;28;20478;-58
2023/01/12 12:02:16;;;;;;;1.13;0.73;;;13.10;56.50;;;;;;5007336;28;20514;-58
2023/01/12 12:04:45;;;;;;;2.00;0.97;;;13.00;56.40;;;;;;5014678;28;20469;-57
2023/01/12 12:07:30;;;;;;;1.67;1.00;;;13.00;56.80;;;;;;5007863;28;20822;-58
2023/01/12 12:10:14;;;;;;;2.60;0.70;;;13.10;56.50;;;;;;5027459;28;20863;-56
2023/01/12 12:12:54;;;;;;;1.33;1.23;;;13.30;56.20;;;;;;5009974;28;20506;-58
2023/01/12 12:15:56;;;;;;;1.37;1.27;;;13.40;56.30;;;;;;5010507;28;20499;-57
2023/01/12 12:18:42;;;;;;;1.17;0.80;;;13.50;56.10;;;;;;5014686;28;20813;-57
2023/01/12 12:21:14;;;;;;;3.67;0.97;;;13.40;56.10;;;;;;4993909;28;20539;-58
2023/01/12 12:23:47;;;;;;;1.27;0.70;;;13.30;56.00;;;;;;5013188;28;20915;-58
2023/01/12 12:26:27;;;;;;;1.07;0.90;;;13.10;56.30;;;;;;5012792;28;20524;-57
2023/01/12 12:29:16;;;;;;;0.93;0.90;;;13.00;56.60;;;;;;5009483;28;20550;-57
2023/01/12 12:32:23;;;;;;;3.00;1.00;;;13.10;56.90;;;;;;5011691;28;20452;-58
2023/01/12 12:35:11;;;;;;;1.67;1.00;;;13.20;57.30;;;;;;4962374;28;20491;-58
2023/01/12 12:37:58;;;;;;;1.90;1.00;;;13.50;56.60;;;;;;5005035;28;20496;-58
2023/01/12 12:46:33;;;;;;;3.43;1.23;;;13.70;55.40;;;;;;4998553;28;20507;-58
2023/01/12 12:49:11;;;;;;;1.10;1.00;;;13.60;55.40;;;;;;5006112;28;20476;-58
2023/01/12 12:51:39;;;;;;;2.13;0.90;;;13.70;55.70;;;;;;5009685;28;21164;-58
2023/01/12 12:54:13;;;;;;;1.10;0.70;;;13.80;55.50;;;;;;5007840;28;20985;-57
2023/01/12 12:56:40;;;;;;;1.00;0.90;;;14.10;55.40;;;;;;5011674;28;20947;-57
2023/01/12 12:59:06;;;;;;;2.00;0.80;;;13.90;55.00;;;;;;5005265;28;20432;-57
2023/01/12 13:01:31;;;;;;;4.30;0.90;;;13.70;55.00;;;;;;5007575;28;20499;-58
2023/01/12 13:04:06;;;;;;;4.10;1.23;;;13.60;55.80;;;;;;4998095;28;20442;-59
2023/01/12 13:06:34;;;;;;;2.00;1.30;;;13.80;56.10;;;;;;5005756;28;20544;-56
2023/01/12 13:09:24;;;;;;;1.27;0.87;;;13.80;55.60;;;;;;5006664;28;20445;-56
2023/01/12 13:11:54;;;;;;;1.83;1.00;;;13.80;55.50;;;;;;5001476;28;20460;-56
2023/01/12 13:14:33;;;;;;;1.73;0.90;;;13.90;55.70;;;;;;5005581;28;20485;-57
2023/01/12 13:17:04;;;;;;;1.87;0.80;;;13.80;55.60;;;;;;5005355;28;20450;-57
2023/01/12 13:19:38;;;;;;;0.80;0.80;;;13.80;56.00;;;;;;5008906;28;20511;-56
2023/01/12 13:22:42;;;;;;;1.10;0.70;;;14.00;55.60;;;;;;5008777;28;20443;-56
2023/01/12 13:25:19;;;;;;;4.30;0.80;;;14.00;55.40;;;;;;5004465;28;20998;-57
2023/01/12 13:28:00;;;;;;;1.57;0.70;;;13.70;55.80;;;;;;5008129;28;20519;-57
2023/01/12 13:30:25;;;;;;;1.60;1.20;;;13.80;56.00;;;;;;5006215;28;20532;-58
2023/01/12 13:33:12;;;;;;;1.53;0.77;;;13.60;55.60;;;;;;5005558;28;20452;-56
2023/01/12 13:35:39;;;;;;;2.00;0.90;;;13.40;56.30;;;;;;5002878;28;20225;-57
2023/01/12 13:38:25;;;;;;;1.07;0.80;;;13.30;56.40;;;;;;5006855;28;20944;-56